New Augusta, Indiana
Current Conditions -  °F | °C
As of 9:53 PM on Sunday 21 Dec 2014 (Local Time) from KEYE Reporting Station
Clear Clear  
Wind Chill: 23°   Ceiling: Unl
Heat Index: 30°   Visibility: 8mi
Dew Point: 25°   Wind: 7mph
Humidity: 82%   Direction: 120°ESE
Pressure: 30.09"   Gusts: NA
Location:  39.8902°N, 86.2967°W
Report Text: KEYE 220253Z AUTO 12006KT 8SM CLR M01/M04 A3009 RMK AO2 SLP199 T10111039 58008
Loading
Personal Weather Stations






























Interactive Weather Map New forecast layout! Learn more

10-Day Weather Forecast

Advertisements
Track Severe Weather on mobile